Delta Virtual Airport Information Service

Edinburgh Airport

ICAO: EGPH Country: United Kingdom
Latitude: 55.95 Longitude: -3.3725
Latest Arrival : DAC208 (KJFK-EGPH) Latest Departure : EZY6963 (1) (EGPH-EGJJ)


WX CaptureLIVE
Data provided by noaa.gov | Fetched at 01:01:53

METAR : EGPH 120550Z 07008KT 4100 -DZ BKN001 08/08 Q1005

TAF : EGPH 120559Z 1206/1306 07006KT 4000 DZ BKN001 BECMG 1206/1209 9999 NSW SCT030 TEMPO 1209/1220 6000 SHRA PROB30 TEMPO 1211/1218 3000 +SHRA BKN012 PROB40 1222/1306 5000 BR BKN005


Runway Data for EGPH
Data provided by openaviationdata.com

Runway ID Mag Var Hdg Length Elevation Surface ILS Freq ILS Id ILS Slope
6 -3 61° 8384 ft 135 ft Asphalt 108.9 IVG 3
12 -3 121° 5919 ft 135 ft Asphalt -- -- --
24 -3 241° 8384 ft 135 ft Asphalt 108.9 ITH 3
30 -3 301° 5919 ft 135 ft Asphalt -- -- --

Edinburgh Airport, United Kingdom
Use only for reference purposes



Not for navigational purposes.